TAP12 SBRF-LPPT
Flight info
| Callsign | TAP12 |
|---|---|
| Flight time | N/A |
| Altitude | 33000 |
| Route | SAFUC DCT NTL UN873 DIDAP/N0460F350 UN873 IPERA/N0446F370 N873 ODEGI/N0442F360 N873 GDV N729 KASAS N602 KONBA UN866 BEXAL DCT LUVUP |
| Aircraft | A21N/M-SDE2E3FGHIRWXY/LB1 |
Departure
| Time | 2026-04-30 20:58 |
|---|---|
| Airport | Recife/Guararapes - Gilberto Freyre International Airport (SBRF) |
Arrival
| Time | N/A |
|---|---|
| Airport | Lisbon Humberto Delgado Airport (LPPT) |
| Time | Latitude | Longitude | Altitude | Speed | Heading |
|---|---|---|---|---|---|
| 2026-04-30 20:15 | -8.13006 | -34.91963 | 43 ft | 0 kts | 72° |
| 2026-04-30 20:50 | -8.13013 | -34.91985 | 42 ft | 4 kts | 72° |
| 2026-04-30 20:50 | -8.13023 | -34.92009 | 42 ft | 4 kts | 55° |
| 2026-04-30 20:50 | -8.13041 | -34.92026 | 38 ft | 4 kts | 17° |
| 2026-04-30 20:51 | -8.13060 | -34.92027 | 39 ft | 0 kts | 342° |
| 2026-04-30 20:54 | -8.13059 | -34.92027 | 16 ft | 1 kts | 342° |
| 2026-04-30 20:54 | -8.13040 | -34.92033 | 43 ft | 7 kts | 343° |
| 2026-04-30 20:54 | -8.12930 | -34.92068 | 43 ft | 21 kts | 342° |
| 2026-04-30 20:55 | -8.12649 | -34.92162 | 42 ft | 22 kts | 340° |
| 2026-04-30 20:55 | -8.12503 | -34.92210 | 41 ft | 22 kts | 342° |
| 2026-04-30 20:55 | -8.12354 | -34.92259 | 41 ft | 23 kts | 342° |
| 2026-04-30 20:56 | -8.12046 | -34.92360 | 39 ft | 24 kts | 341° |
| 2026-04-30 20:56 | -8.11887 | -34.92412 | 38 ft | 24 kts | 342° |
| 2026-04-30 20:56 | -8.11569 | -34.92542 | 37 ft | 25 kts | 317° |
| 2026-04-30 20:57 | -8.11493 | -34.92664 | 37 ft | 18 kts | 236° |
| 2026-04-30 20:57 | -8.11607 | -34.92656 | 37 ft | 19 kts | 163° |
| 2026-04-30 20:57 | -8.11618 | -34.92653 | 37 ft | 0 kts | 161° |
| 2026-04-30 20:58 | -8.11943 | -34.92546 | 38 ft | 84 kts | 162° |
| 2026-04-30 20:58 | -8.12703 | -34.92295 | 45 ft | 144 kts | 162° |
| 2026-04-30 20:58 | -8.13760 | -34.91948 | 330 ft | 161 kts | 162° |
| 2026-04-30 20:58 | -8.14851 | -34.91585 | 852 ft | 170 kts | 161° |
| 2026-04-30 20:59 | -8.17112 | -34.90803 | 1993 ft | 183 kts | 159° |
| 2026-04-30 20:59 | -8.18355 | -34.90380 | 2409 ft | 200 kts | 159° |
| 2026-04-30 21:00 | -8.20918 | -34.88806 | 3047 ft | 242 kts | 121° |
| 2026-04-30 21:00 | -8.21232 | -34.85363 | 4221 ft | 261 kts | 81° |
| 2026-04-30 21:01 | -8.20527 | -34.81731 | 5669 ft | 267 kts | 81° |
| 2026-04-30 21:01 | -8.20193 | -34.79875 | 6355 ft | 270 kts | 82° |
| 2026-04-30 21:01 | -8.19552 | -34.76111 | 7728 ft | 274 kts | 81° |
| 2026-04-30 21:02 | -8.19242 | -34.74236 | 8447 ft | 275 kts | 81° |
| 2026-04-30 21:02 | -8.18866 | -34.72341 | 9159 ft | 277 kts | 73° |
| 2026-04-30 21:02 | -8.17970 | -34.70620 | 9853 ft | 280 kts | 51° |
| 2026-04-30 21:02 | -8.16423 | -34.69368 | 10250 ft | 297 kts | 27° |
| 2026-04-30 21:03 | -8.14344 | -34.68883 | 10487 ft | 321 kts | 2° |
| 2026-04-30 21:03 | -8.12077 | -34.69310 | 10726 ft | 343 kts | 346° |
| 2026-04-30 21:03 | -8.09755 | -34.70087 | 10956 ft | 360 kts | 344° |
| 2026-04-30 21:03 | -8.07352 | -34.70895 | 11413 ft | 367 kts | 345° |
| 2026-04-30 21:04 | -8.04909 | -34.71681 | 11974 ft | 370 kts | 345° |
| 2026-04-30 21:04 | -8.02497 | -34.72432 | 12759 ft | 365 kts | 345° |
| 2026-04-30 21:04 | -7.97707 | -34.73895 | 14226 ft | 359 kts | 346° |
| 2026-04-30 21:05 | -7.95327 | -34.74679 | 14740 ft | 362 kts | 343° |
| 2026-04-30 21:05 | -7.92952 | -34.75560 | 15217 ft | 365 kts | 342° |
| 2026-04-30 21:05 | -7.90564 | -34.76459 | 15695 ft | 368 kts | 343° |
| 2026-04-30 21:05 | -7.88151 | -34.77365 | 16157 ft | 371 kts | 343° |
| 2026-04-30 21:06 | -7.85718 | -34.78278 | 16618 ft | 374 kts | 343° |
| 2026-04-30 21:06 | -7.83269 | -34.79196 | 17075 ft | 377 kts | 343° |
| 2026-04-30 21:06 | -7.80831 | -34.80109 | 17522 ft | 380 kts | 343° |
| 2026-04-30 21:06 | -7.78335 | -34.81041 | 17974 ft | 383 kts | 344° |
| 2026-04-30 21:07 | -7.75815 | -34.81947 | 18391 ft | 386 kts | 346° |
| 2026-04-30 21:07 | -7.73262 | -34.82805 | 18780 ft | 388 kts | 346° |
| 2026-04-30 21:07 | -7.70691 | -34.83659 | 19178 ft | 390 kts | 346° |
| 2026-04-30 21:07 | -7.68112 | -34.84517 | 19574 ft | 392 kts | 346° |
| 2026-04-30 21:08 | -7.65520 | -34.85379 | 19975 ft | 394 kts | 345° |
| 2026-04-30 21:08 | -7.62910 | -34.86247 | 20370 ft | 396 kts | 345° |
| 2026-04-30 21:08 | -7.60327 | -34.87105 | 20762 ft | 397 kts | 345° |
| 2026-04-30 21:08 | -7.57692 | -34.87981 | 21150 ft | 400 kts | 345° |
| 2026-04-30 21:09 | -7.55048 | -34.88861 | 21543 ft | 401 kts | 345° |
| 2026-04-30 21:09 | -7.52390 | -34.89746 | 21935 ft | 403 kts | 345° |
| 2026-04-30 21:09 | -7.49717 | -34.90636 | 22324 ft | 405 kts | 345° |
| 2026-04-30 21:09 | -7.47034 | -34.91529 | 22712 ft | 407 kts | 345° |
| 2026-04-30 21:10 | -7.44334 | -34.92427 | 23095 ft | 410 kts | 345° |
| 2026-04-30 21:10 | -7.41620 | -34.93332 | 23456 ft | 412 kts | 345° |
| 2026-04-30 21:10 | -7.38898 | -34.94239 | 23775 ft | 413 kts | 344° |
| 2026-04-30 21:10 | -7.36202 | -34.95144 | 24074 ft | 415 kts | 344° |
| 2026-04-30 21:11 | -7.33458 | -34.96069 | 24380 ft | 416 kts | 344° |
| 2026-04-30 21:11 | -7.30704 | -34.96995 | 24693 ft | 418 kts | 344° |
| 2026-04-30 21:11 | -7.27947 | -34.97922 | 24993 ft | 419 kts | 344° |
| 2026-04-30 21:11 | -7.25173 | -34.98853 | 25293 ft | 420 kts | 344° |
| 2026-04-30 21:12 | -7.22399 | -34.99783 | 25622 ft | 421 kts | 343° |
| 2026-04-30 21:12 | -7.19617 | -35.00718 | 25930 ft | 422 kts | 343° |
| 2026-04-30 21:12 | -7.16833 | -35.01654 | 26225 ft | 423 kts | 343° |
| 2026-04-30 21:12 | -7.14038 | -35.02595 | 26505 ft | 424 kts | 343° |
| 2026-04-30 21:13 | -7.11230 | -35.03539 | 26769 ft | 426 kts | 343° |
| 2026-04-30 21:13 | -7.08449 | -35.04474 | 27030 ft | 428 kts | 343° |
| 2026-04-30 21:13 | -7.05624 | -35.05420 | 27296 ft | 429 kts | 343° |
| 2026-04-30 21:13 | -7.02785 | -35.06372 | 27558 ft | 430 kts | 343° |
| 2026-04-30 21:14 | -6.99940 | -35.07329 | 27815 ft | 432 kts | 343° |
| 2026-04-30 21:14 | -6.97084 | -35.08288 | 28068 ft | 433 kts | 343° |
| 2026-04-30 21:14 | -6.94222 | -35.09249 | 28314 ft | 434 kts | 343° |
| 2026-04-30 21:14 | -6.91343 | -35.10200 | 28558 ft | 435 kts | 345° |
| 2026-04-30 21:15 | -6.88396 | -35.10861 | 28792 ft | 435 kts | 352° |
| 2026-04-30 21:15 | -6.85433 | -35.11304 | 29027 ft | 436 kts | 353° |
| 2026-04-30 21:15 | -6.82423 | -35.11722 | 29255 ft | 437 kts | 353° |
| 2026-04-30 21:15 | -6.79408 | -35.12140 | 29461 ft | 439 kts | 353° |
| 2026-04-30 21:16 | -6.76370 | -35.12568 | 29687 ft | 441 kts | 353° |
| 2026-04-30 21:16 | -6.73337 | -35.13002 | 29912 ft | 442 kts | 353° |
| 2026-04-30 21:16 | -6.70291 | -35.13443 | 30109 ft | 443 kts | 353° |
| 2026-04-30 21:16 | -6.67234 | -35.13879 | 30293 ft | 444 kts | 353° |
| 2026-04-30 21:17 | -6.64174 | -35.14320 | 30506 ft | 445 kts | 353° |
| 2026-04-30 21:17 | -6.61111 | -35.14762 | 30681 ft | 446 kts | 353° |
| 2026-04-30 21:17 | -6.58036 | -35.15203 | 30879 ft | 446 kts | 353° |
| 2026-04-30 21:17 | -6.54963 | -35.15642 | 31095 ft | 446 kts | 352° |
| 2026-04-30 21:18 | -6.51927 | -35.16075 | 31242 ft | 448 kts | 352° |
| 2026-04-30 21:18 | -6.48837 | -35.16524 | 31409 ft | 449 kts | 352° |
| 2026-04-30 21:18 | -6.45742 | -35.16977 | 31607 ft | 450 kts | 352° |
| 2026-04-30 21:18 | -6.42639 | -35.17423 | 31786 ft | 451 kts | 352° |
| 2026-04-30 21:19 | -6.39532 | -35.17866 | 32000 ft | 451 kts | 352° |
| 2026-04-30 21:19 | -6.36433 | -35.18311 | 32253 ft | 449 kts | 352° |
| 2026-04-30 21:19 | -6.33338 | -35.18756 | 32454 ft | 449 kts | 352° |
| 2026-04-30 21:19 | -6.30249 | -35.19205 | 32709 ft | 448 kts | 352° |
| 2026-04-30 21:20 | -6.27206 | -35.19644 | 32923 ft | 447 kts | 352° |
| 2026-04-30 21:20 | -6.24129 | -35.20085 | 32965 ft | 447 kts | 352° |
| 2026-04-30 21:20 | -6.21109 | -35.20522 | 32942 ft | 431 kts | 352° |
| 2026-04-30 21:20 | -6.18185 | -35.20945 | 32915 ft | 420 kts | 352° |
| 2026-04-30 21:21 | -6.12397 | -35.21778 | 32909 ft | 420 kts | 352° |
| 2026-04-30 21:22 | -6.03726 | -35.23021 | 32915 ft | 423 kts | 352° |
| 2026-04-30 21:23 | -5.92019 | -35.24272 | 32906 ft | 425 kts | 5° |
| 2026-04-30 21:23 | -5.89116 | -35.23728 | 32902 ft | 427 kts | 17° |
| 2026-04-30 21:23 | -5.83737 | -35.21201 | 32911 ft | 427 kts | 28° |
| 2026-04-30 21:24 | -5.78522 | -35.18312 | 32910 ft | 428 kts | 28° |
| 2026-04-30 21:24 | -5.73312 | -35.15493 | 32915 ft | 428 kts | 27° |
| 2026-04-30 21:25 | -5.65421 | -35.11276 | 32935 ft | 429 kts | 27° |
| 2026-04-30 21:26 | -5.57523 | -35.07057 | 32933 ft | 429 kts | 28° |
| 2026-04-30 21:27 | -5.49635 | -35.02837 | 32937 ft | 431 kts | 28° |
| 2026-04-30 21:27 | -5.44361 | -35.00011 | 32932 ft | 430 kts | 28° |
| 2026-04-30 21:28 | -5.36414 | -34.95769 | 32933 ft | 432 kts | 27° |
| 2026-04-30 21:29 | -5.28486 | -34.91536 | 32936 ft | 434 kts | 28° |
| 2026-04-30 21:30 | -5.15151 | -34.84415 | 32934 ft | 434 kts | 28° |
| 2026-04-30 21:31 | -5.01849 | -34.77311 | 32935 ft | 434 kts | 28° |
| 2026-04-30 21:32 | -4.93818 | -34.73033 | 32935 ft | 437 kts | 28° |
| 2026-04-30 21:32 | -4.88457 | -34.70174 | 32928 ft | 436 kts | 28° |
| 2026-04-30 21:33 | -4.80408 | -34.65887 | 32929 ft | 437 kts | 28° |
| 2026-04-30 21:34 | -4.75085 | -34.63051 | 32929 ft | 436 kts | 28° |
| 2026-04-30 21:34 | -4.67029 | -34.58755 | 32931 ft | 438 kts | 28° |
| 2026-04-30 21:35 | -4.61641 | -34.55884 | 32929 ft | 438 kts | 28° |
| 2026-04-30 21:35 | -4.56251 | -34.53013 | 32930 ft | 438 kts | 28° |
| 2026-04-30 21:36 | -4.50898 | -34.50162 | 32928 ft | 439 kts | 28° |
| 2026-04-30 21:37 | -4.40118 | -34.44429 | 32932 ft | 438 kts | 28° |
| 2026-04-30 21:37 | -4.34741 | -34.41558 | 32929 ft | 438 kts | 28° |
| 2026-04-30 21:38 | -4.29398 | -34.38709 | 32930 ft | 438 kts | 29° |
| 2026-04-30 21:38 | -4.24013 | -34.35847 | 32929 ft | 438 kts | 29° |
| 2026-04-30 21:39 | -4.18631 | -34.32980 | 32932 ft | 438 kts | 29° |
| 2026-04-30 21:39 | -4.13247 | -34.30116 | 32926 ft | 438 kts | 29° |
| 2026-04-30 21:40 | -4.07863 | -34.27252 | 32931 ft | 439 kts | 29° |
| 2026-04-30 21:40 | -4.02494 | -34.24393 | 32929 ft | 440 kts | 29° |
| 2026-04-30 21:41 | -3.97091 | -34.21520 | 32926 ft | 440 kts | 29° |
| 2026-04-30 21:41 | -3.91694 | -34.18647 | 32927 ft | 440 kts | 29° |
| 2026-04-30 21:42 | -3.86296 | -34.15779 | 32929 ft | 440 kts | 29° |
| 2026-04-30 21:42 | -3.80924 | -34.12929 | 32928 ft | 440 kts | 29° |
| 2026-04-30 21:43 | -3.75529 | -34.10066 | 32927 ft | 439 kts | 29° |
| 2026-04-30 21:43 | -3.70135 | -34.07207 | 32928 ft | 438 kts | 29° |
| 2026-04-30 21:44 | -3.64748 | -34.04346 | 32930 ft | 439 kts | 29° |
| 2026-04-30 21:44 | -3.59395 | -34.01504 | 32930 ft | 439 kts | 29° |
| 2026-04-30 21:45 | -3.54007 | -33.98649 | 32927 ft | 439 kts | 29° |
| 2026-04-30 21:45 | -3.48614 | -33.95786 | 32926 ft | 439 kts | 29° |
| 2026-04-30 21:46 | -3.43224 | -33.92927 | 32928 ft | 438 kts | 29° |
| 2026-04-30 21:46 | -3.37840 | -33.90068 | 32930 ft | 439 kts | 29° |
| 2026-04-30 21:47 | -3.32490 | -33.87237 | 32929 ft | 438 kts | 29° |
| 2026-04-30 21:47 | -3.27096 | -33.84385 | 32929 ft | 438 kts | 29° |
| 2026-04-30 21:48 | -3.21709 | -33.81531 | 32930 ft | 439 kts | 29° |
| 2026-04-30 21:48 | -3.16322 | -33.78683 | 32929 ft | 435 kts | 29° |
| 2026-04-30 21:49 | -3.11031 | -33.75881 | 32927 ft | 433 kts | 29° |
| 2026-04-30 21:49 | -3.05707 | -33.73060 | 32930 ft | 433 kts | 29° |
| 2026-04-30 21:50 | -3.00379 | -33.70239 | 32933 ft | 433 kts | 29° |
| 2026-04-30 21:50 | -2.95056 | -33.67423 | 32931 ft | 433 kts | 29° |
| 2026-04-30 21:51 | -2.89729 | -33.64602 | 32928 ft | 433 kts | 29° |
| 2026-04-30 21:51 | -2.84440 | -33.61804 | 32929 ft | 434 kts | 29° |
| 2026-04-30 21:52 | -2.79108 | -33.58984 | 32933 ft | 434 kts | 29° |
| 2026-04-30 21:52 | -2.73770 | -33.56160 | 32931 ft | 434 kts | 29° |
| 2026-04-30 21:53 | -2.68436 | -33.53339 | 32927 ft | 434 kts | 29° |
| 2026-04-30 21:53 | -2.63138 | -33.50537 | 32926 ft | 434 kts | 29° |
| 2026-04-30 21:54 | -2.57812 | -33.47709 | 32928 ft | 434 kts | 29° |
| 2026-04-30 21:54 | -2.52478 | -33.44877 | 32930 ft | 435 kts | 29° |
| 2026-04-30 21:55 | -2.47131 | -33.42039 | 32929 ft | 435 kts | 29° |
| 2026-04-30 21:55 | -2.41789 | -33.39203 | 32929 ft | 435 kts | 29° |
| 2026-04-30 21:56 | -2.36479 | -33.36387 | 32929 ft | 435 kts | 29° |
| 2026-04-30 21:56 | -2.31135 | -33.33555 | 32929 ft | 435 kts | 29° |
| 2026-04-30 21:57 | -2.25792 | -33.30725 | 32928 ft | 434 kts | 29° |
| 2026-04-30 21:57 | -2.20438 | -33.27888 | 32931 ft | 436 kts | 29° |
| 2026-04-30 21:58 | -2.15091 | -33.25048 | 32929 ft | 435 kts | 29° |
| 2026-04-30 21:58 | -2.09775 | -33.22228 | 32930 ft | 435 kts | 29° |
| 2026-04-30 21:59 | -2.04422 | -33.19392 | 32929 ft | 435 kts | 29° |
| 2026-04-30 22:00 | -1.96396 | -33.15134 | 32934 ft | 436 kts | 30° |
| 2026-04-30 22:00 | -1.88418 | -33.10901 | 32932 ft | 434 kts | 29° |
| 2026-04-30 22:01 | -1.83083 | -33.08073 | 32930 ft | 434 kts | 29° |
| 2026-04-30 22:01 | -1.77750 | -33.05245 | 32930 ft | 434 kts | 29° |
| 2026-04-30 22:02 | -1.72417 | -33.02419 | 32931 ft | 434 kts | 29° |
| 2026-04-30 22:02 | -1.67079 | -32.99586 | 32930 ft | 434 kts | 29° |
| 2026-04-30 22:03 | -1.61747 | -32.96760 | 32929 ft | 434 kts | 30° |
| 2026-04-30 22:03 | -1.56457 | -32.93952 | 32927 ft | 433 kts | 29° |
| 2026-04-30 22:04 | -1.51135 | -32.91129 | 32931 ft | 433 kts | 29° |
| 2026-04-30 22:05 | -1.43145 | -32.86893 | 32927 ft | 434 kts | 28° |
| 2026-04-30 22:05 | -1.37818 | -32.84066 | 32930 ft | 434 kts | 28° |
| 2026-04-30 22:06 | -1.32522 | -32.81257 | 32933 ft | 434 kts | 28° |
| 2026-04-30 22:06 | -1.24510 | -32.77032 | 32931 ft | 434 kts | 28° |
| 2026-04-30 22:07 | -1.19172 | -32.74211 | 32929 ft | 434 kts | 28° |
| 2026-04-30 22:07 | -1.13840 | -32.71383 | 32928 ft | 434 kts | 29° |
| 2026-04-30 22:08 | -1.08538 | -32.68576 | 32931 ft | 434 kts | 29° |
| 2026-04-30 22:08 | -1.03203 | -32.65751 | 32932 ft | 434 kts | 28° |
| 2026-04-30 22:09 | -0.97869 | -32.62924 | 32930 ft | 434 kts | 29° |
| 2026-04-30 22:09 | -0.92543 | -32.60104 | 32929 ft | 432 kts | 29° |
| 2026-04-30 22:10 | -0.87268 | -32.57308 | 32931 ft | 432 kts | 29° |
| 2026-04-30 22:10 | -0.81957 | -32.54499 | 32932 ft | 432 kts | 29° |
| 2026-04-30 22:11 | -0.73986 | -32.50288 | 32932 ft | 432 kts | 28° |
| 2026-04-30 22:12 | -0.68671 | -32.47479 | 32931 ft | 432 kts | 28° |
| 2026-04-30 22:12 | -0.63394 | -32.44684 | 32933 ft | 432 kts | 28° |
| 2026-04-30 22:13 | -0.58095 | -32.41875 | 32932 ft | 431 kts | 28° |
| 2026-04-30 22:13 | -0.52790 | -32.39069 | 32930 ft | 431 kts | 28° |
| 2026-04-30 22:14 | -0.47487 | -32.36266 | 32932 ft | 431 kts | 28° |
| 2026-04-30 22:14 | -0.42218 | -32.33478 | 32931 ft | 432 kts | 28° |
| 2026-04-30 22:15 | -0.36899 | -32.30671 | 32928 ft | 432 kts | 28° |
| 2026-04-30 22:15 | -0.31583 | -32.27866 | 32930 ft | 432 kts | 28° |
| 2026-04-30 22:16 | -0.26266 | -32.25053 | 32934 ft | 432 kts | 28° |
| 2026-04-30 22:17 | -0.15670 | -32.19446 | 32929 ft | 432 kts | 28° |
| 2026-04-30 22:17 | -0.07697 | -32.15229 | 32928 ft | 432 kts | 28° |
| 2026-04-30 22:18 | 0.00238 | -32.11027 | 32940 ft | 432 kts | 28° |
| 2026-04-30 22:19 | 0.08222 | -32.06813 | 32928 ft | 433 kts | 28° |
| 2026-04-30 22:20 | 0.16209 | -32.02593 | 32932 ft | 433 kts | 28° |
| 2026-04-30 22:20 | 0.24154 | -31.98393 | 32933 ft | 433 kts | 28° |
| 2026-04-30 22:21 | 0.29475 | -31.95579 | 32933 ft | 433 kts | 28° |
| 2026-04-30 22:21 | 0.34797 | -31.92769 | 32931 ft | 433 kts | 28° |
| 2026-04-30 22:22 | 0.40118 | -31.89954 | 32932 ft | 433 kts | 28° |
| 2026-04-30 22:22 | 0.45405 | -31.87157 | 32934 ft | 433 kts | 28° |
| 2026-04-30 22:23 | 0.50728 | -31.84338 | 32933 ft | 433 kts | 28° |
| 2026-04-30 22:23 | 0.56049 | -31.81521 | 32934 ft | 433 kts | 28° |
| 2026-04-30 22:24 | 0.61370 | -31.78715 | 32935 ft | 433 kts | 28° |
| 2026-04-30 22:24 | 0.66660 | -31.75920 | 32935 ft | 433 kts | 28° |
| 2026-04-30 22:25 | 0.71988 | -31.73100 | 32936 ft | 433 kts | 28° |
| 2026-04-30 22:25 | 0.77320 | -31.70282 | 32934 ft | 433 kts | 28° |
| 2026-04-30 22:26 | 0.85313 | -31.66057 | 32936 ft | 433 kts | 28° |
| 2026-04-30 22:27 | 0.90607 | -31.63251 | 32933 ft | 433 kts | 28° |
| 2026-04-30 22:27 | 0.98587 | -31.58994 | 32932 ft | 435 kts | 28° |
| 2026-04-30 22:28 | 1.06646 | -31.54726 | 32937 ft | 437 kts | 28° |
| 2026-04-30 22:29 | 1.17351 | -31.49056 | 32935 ft | 437 kts | 28° |
| 2026-04-30 22:31 | 1.36167 | -31.39148 | 32938 ft | 437 kts | 28° |
| 2026-04-30 22:32 | 1.49550 | -31.32081 | 32934 ft | 436 kts | 28° |
| 2026-04-30 22:33 | 1.62918 | -31.25008 | 32937 ft | 437 kts | 28° |
| 2026-04-30 22:35 | 1.76262 | -31.17945 | 32938 ft | 434 kts | 28° |
| 2026-04-30 22:36 | 1.89568 | -31.10907 | 32936 ft | 434 kts | 28° |
| 2026-04-30 22:37 | 1.99322 | -31.05746 | 32937 ft | 430 kts | 28° |
| 2026-04-30 22:38 | 2.10752 | -30.99677 | 32936 ft | 430 kts | 28° |
| 2026-04-30 22:39 | 2.17795 | -30.95950 | 32936 ft | 430 kts | 28° |
| 2026-04-30 22:40 | 2.34497 | -30.87105 | 32938 ft | 430 kts | 28° |
| 2026-04-30 22:41 | 2.46814 | -30.80592 | 32938 ft | 430 kts | 28° |
| 2026-04-30 22:43 | 2.62620 | -30.72216 | 32938 ft | 430 kts | 28° |
| 2026-04-30 22:44 | 2.73179 | -30.66615 | 32939 ft | 430 kts | 28° |
| 2026-04-30 22:45 | 2.88989 | -30.58231 | 32940 ft | 430 kts | 28° |
| 2026-04-30 22:47 | 3.04837 | -30.49827 | 32941 ft | 429 kts | 28° |
| 2026-04-30 22:48 | 3.15360 | -30.44247 | 32941 ft | 430 kts | 28° |
| 2026-04-30 22:49 | 3.31180 | -30.35846 | 32931 ft | 432 kts | 28° |
| 2026-04-30 22:51 | 3.47101 | -30.27382 | 32945 ft | 432 kts | 28° |
| 2026-04-30 22:52 | 3.55012 | -30.23145 | 32942 ft | 432 kts | 28° |
| 2026-04-30 22:53 | 3.65628 | -30.17497 | 32945 ft | 432 kts | 28° |
| 2026-04-30 22:53 | 3.73575 | -30.13257 | 32943 ft | 432 kts | 28° |
| 2026-04-30 22:55 | 3.86837 | -30.06260 | 32949 ft | 432 kts | 28° |
| 2026-04-30 22:56 | 3.97453 | -30.00590 | 32945 ft | 432 kts | 27° |
| 2026-04-30 22:57 | 4.10715 | -29.93571 | 32946 ft | 433 kts | 28° |
| 2026-04-30 22:58 | 4.21345 | -29.87912 | 32951 ft | 433 kts | 28° |
| 2026-04-30 22:59 | 4.37272 | -29.79420 | 32951 ft | 434 kts | 27° |